Time;durP1;ratioP1;P1;durP2;ratioP2;P2;SDS_P1;SDS_P2;PMS_P1;PMS_P2;Temp;Humidity;BMP_temperature;BMP_pressure;BME280_temperature;BME280_humidity;BME280_pressure;Samples;Min_cycle;Max_cycle;Signal;HPM_P1;HPM_P2
2022/04/24 00:00:52;;;;;;;2.30;2.10;;;;;;;16.84;84.23;99630.34;5070965;28;20203;-80
2022/04/24 00:03:19;;;;;;;2.45;2.05;;;;;;;16.93;83.71;99635.44;5071185;28;20264;-80
2022/04/24 00:05:47;;;;;;;2.85;2.47;;;;;;;16.83;83.46;99631.28;5071196;28;20226;-79
2022/04/24 00:08:14;;;;;;;1.80;1.70;;;;;;;16.68;83.31;99608.84;5071070;28;20190;-80
2022/04/24 00:10:41;;;;;;;2.35;1.90;;;;;;;16.82;82.81;99622.53;5070920;28;20260;-81
2022/04/24 00:13:07;;;;;;;3.83;2.05;;;;;;;16.77;83.00;99626.13;5070880;28;20199;-79
2022/04/24 00:15:34;;;;;;;4.72;2.20;;;;;;;16.20;89.98;99555.50;5070846;28;20203;-79
2022/04/24 00:18:01;;;;;;;2.28;2.08;;;;;;;16.44;93.97;99630.16;5035262;28;20198;-79
2022/04/24 00:20:28;;;;;;;2.30;2.10;;;;;;;16.13;97.35;99640.19;5070189;28;20759;-80
2022/04/24 00:22:56;;;;;;;2.83;2.45;;;;;;;15.77;100.00;99630.25;5070502;28;20199;-79
2022/04/24 00:25:23;;;;;;;2.70;2.30;;;;;;;15.37;100.00;99609.81;5070954;28;20252;-79
2022/04/24 00:27:50;;;;;;;4.45;3.63;;;;;;;15.32;100.00;99632.53;5070608;28;20229;-80
2022/04/24 00:30:16;;;;;;;7.63;4.78;;;;;;;15.11;100.00;99637.13;5070577;28;20201;-79
2022/04/24 00:32:43;;;;;;;3.60;3.30;;;;;;;14.98;100.00;99627.69;5018812;28;20702;-80
2022/04/24 00:35:10;;;;;;;3.58;3.28;;;;;;;14.85;100.00;99630.41;5070246;28;20226;-80
2022/04/24 00:37:37;;;;;;;4.50;2.72;;;;;;;14.28;100.00;99548.28;5070869;28;20203;-80
2022/04/24 00:40:06;;;;;;;5.57;4.15;;;;;;;14.65;100.00;99621.03;5070187;28;20569;-78
2022/04/24 00:42:33;;;;;;;5.40;2.70;;;;;;;14.63;100.00;99633.22;5018260;28;20217;-78
2022/04/24 00:45:00;;;;;;;2.58;2.47;;;;;;;14.59;100.00;99623.72;5034867;28;20750;-79
2022/04/24 00:47:27;;;;;;;4.32;3.42;;;;;;;14.30;100.00;99583.00;5069275;28;20219;-80
2022/04/24 00:49:54;;;;;;;8.07;4.53;;;;;;;14.51;100.00;99628.13;5035043;28;20214;-81
2022/04/24 00:52:21;;;;;;;14.10;8.30;;;;;;;14.42;100.00;99630.78;5070473;28;20199;-81
2022/04/24 00:54:47;;;;;;;11.10;7.03;;;;;;;14.18;100.00;99596.16;5070314;28;20210;-80
2022/04/24 00:57:16;;;;;;;10.30;6.47;;;;;;;14.36;100.00;99635.19;5068982;28;20206;-79
2022/04/24 00:59:43;;;;;;;11.93;6.20;;;;;;;14.29;100.00;99645.63;5070428;28;20191;-78
2022/04/24 01:02:11;;;;;;;10.05;5.88;;;;;;;14.18;100.00;99624.84;5070162;28;20195;-79
2022/04/24 01:04:39;;;;;;;7.95;5.85;;;;;;;14.27;100.00;99639.53;5069913;28;20226;-80
2022/04/24 01:07:06;;;;;;;12.25;7.35;;;;;;;14.20;100.00;99636.13;5070290;28;20215;-79
2022/04/24 01:09:34;;;;;;;15.30;7.45;;;;;;;14.18;100.00;99640.50;5069855;28;20214;-79
2022/04/24 01:12:01;;;;;;;10.57;6.20;;;;;;;13.93;100.00;99597.22;5070176;28;20203;-79
2022/04/24 01:14:30;;;;;;;10.90;6.35;;;;;;;14.09;100.00;99637.09;5070809;28;20552;-80
2022/04/24 01:16:58;;;;;;;8.45;5.38;;;;;;;14.10;100.00;99631.84;5070277;28;20199;-80
2022/04/24 01:19:26;;;;;;;5.82;4.60;;;;;;;14.08;100.00;99635.34;5070597;28;20198;-80
2022/04/24 01:21:54;;;;;;;6.63;4.82;;;;;;;14.13;100.00;99639.66;5069489;28;20706;-80
2022/04/24 01:24:22;;;;;;;4.70;3.85;;;;;;;14.15;100.00;99639.66;5070586;28;20624;-79
2022/04/24 01:26:50;;;;;;;5.22;3.42;;;;;;;13.83;100.00;99590.31;4986110;28;20230;-79
2022/04/24 01:29:17;;;;;;;8.60;3.42;;;;;;;13.67;100.00;99553.06;5070010;28;20207;-81
2022/04/24 01:31:45;;;;;;;7.05;4.10;;;;;;;14.16;100.00;99642.22;5069758;28;20675;-79
2022/04/24 01:34:12;;;;;;;6.70;4.25;;;;;;;14.17;100.00;99640.50;5069949;28;20250;-79
2022/04/24 01:36:39;;;;;;;8.43;3.28;;;;;;;14.16;100.00;99636.19;5070087;28;20191;-80
2022/04/24 01:39:08;;;;;;;5.15;3.33;;;;;;;14.34;100.00;99652.56;5069785;28;20199;-79
2022/04/24 01:41:35;;;;;;;4.78;4.22;;;;;;;14.22;100.00;99656.97;5072112;28;20207;-78
2022/04/24 01:44:02;;;;;;;6.35;4.75;;;;;;;14.14;100.00;99643.13;5073448;28;20202;-78
2022/04/24 01:46:29;;;;;;;6.40;4.45;;;;;;;14.18;100.00;99656.13;5074026;28;20218;-78
2022/04/24 01:48:56;;;;;;;7.47;4.57;;;;;;;14.24;100.00;99656.09;5073371;28;20191;-79
2022/04/24 01:51:22;;;;;;;4.63;4.15;;;;;;;14.01;100.00;99631.06;5021551;28;20203;-79
2022/04/24 01:53:49;;;;;;;5.00;4.00;;;;;;;14.04;100.00;99641.44;5073651;28;20191;-80
2022/04/24 01:56:17;;;;;;;4.95;4.22;;;;;;;14.11;100.00;99653.56;5073951;28;20203;-79
2022/04/24 01:58:44;;;;;;;4.57;4.18;;;;;;;13.95;100.00;99654.56;5038051;28;20268;-78
2022/04/24 02:01:11;;;;;;;6.38;4.57;;;;;;;13.73;100.00;99620.75;5073399;28;20210;-79
2022/04/24 02:03:39;;;;;;;7.85;4.60;;;;;;;13.82;100.00;99651.13;5073261;28;20252;-79
2022/04/24 02:06:06;;;;;;;6.32;4.43;;;;;;;13.82;100.00;99651.13;5073613;28;20254;-79
2022/04/24 02:08:35;;;;;;;4.90;4.22;;;;;;;13.75;100.00;99649.44;5021738;28;20206;-79
2022/04/24 02:11:02;;;;;;;6.47;4.50;;;;;;;13.66;100.00;99659.91;5072979;28;20704;-80
2022/04/24 02:13:30;;;;;;;6.10;4.18;;;;;;;13.75;100.00;99654.63;5072982;28;20349;-80
2022/04/24 02:15:57;;;;;;;3.85;3.45;;;;;;;13.65;100.00;99637.31;5073556;28;20647;-79
2022/04/24 02:18:24;;;;;;;4.80;3.60;;;;;;;13.68;100.00;99650.31;5073398;28;20579;-80
2022/04/24 02:20:50;;;;;;;8.05;3.90;;;;;;;13.64;100.00;99653.81;5072658;28;20599;-79
2022/04/24 02:23:17;;;;;;;3.92;3.63;;;;;;;13.60;100.00;99641.66;5073080;28;20221;-79
2022/04/24 02:25:44;;;;;;;6.65;3.80;;;;;;;13.66;100.00;99649.50;5072690;28;20206;-80
2022/04/24 02:28:11;;;;;;;7.28;3.72;;;;;;;13.64;100.00;99651.22;5073123;28;20227;-80
2022/04/24 02:30:39;;;;;;;5.78;3.50;;;;;;;13.54;100.00;99641.72;5037947;28;20199;-81
2022/04/24 02:33:06;;;;;;;8.60;3.83;;;;;;;13.63;100.00;99665.09;5072816;28;20657;-80
2022/04/24 02:35:33;;;;;;;4.70;4.05;;;;;;;13.58;100.00;99661.66;5073413;28;20788;-80
2022/04/24 02:37:59;;;;;;;6.80;4.18;;;;;;;13.58;100.00;99666.88;5072833;28;20651;-80
2022/04/24 02:40:27;;;;;;;8.25;4.32;;;;;;;13.61;100.00;99672.06;5072802;28;20667;-79
2022/04/24 02:42:54;;;;;;;6.47;4.22;;;;;;;13.63;100.00;99680.72;5072419;28;20191;-80
2022/04/24 02:45:21;;;;;;;4.90;4.50;;;;;;;13.05;100.00;99595.00;5072926;28;20560;-80
2022/04/24 02:47:49;;;;;;;6.65;4.57;;;;;;;13.47;100.00;99679.06;5072460;28;20219;-80
2022/04/24 02:50:16;;;;;;;4.53;4.13;;;;;;;13.41;100.00;99678.19;5073301;28;20206;-80
2022/04/24 02:52:47;;;;;;;5.55;5.05;;;;;;;13.45;100.00;99671.25;5071843;28;20203;-79
2022/04/24 02:55:15;;;;;;;5.90;4.63;;;;;;;13.55;100.00;99682.53;5021288;28;20210;-80
2022/04/24 02:57:42;;;;;;;5.25;4.80;;;;;;;13.53;100.00;99682.50;5072837;28;20195;-80
2022/04/24 03:00:10;;;;;;;5.32;4.57;;;;;;;13.40;100.00;99658.25;5073090;28;20288;-80
2022/04/24 03:02:42;;;;;;;10.77;5.45;;;;;;;13.60;100.00;99680.75;5072767;28;20650;-80
2022/04/24 03:05:11;;;;;;;14.75;5.07;;;;;;;13.56;100.00;99687.69;5073724;28;20671;-80
2022/04/24 03:07:38;;;;;;;5.70;4.85;;;;;;;13.50;100.00;99689.47;5073297;28;20231;-80
2022/04/24 03:10:05;;;;;;;6.15;4.35;;;;;;;13.50;100.00;99684.25;5073572;28;20214;-80
2022/04/24 03:12:32;;;;;;;6.35;5.47;;;;;;;13.10;100.00;99608.88;5073781;28;20199;-80
2022/04/24 03:14:59;;;;;;;11.02;5.40;;;;;;;13.59;100.00;99687.69;5073343;28;20211;-79
2022/04/24 03:17:26;;;;;;;6.65;4.68;;;;;;;13.63;100.00;99684.22;5071904;28;20210;-79
2022/04/24 03:19:53;;;;;;;8.18;4.28;;;;;;;13.43;100.00;99646.09;5020729;28;20211;-80
2022/04/24 03:22:21;;;;;;;6.13;4.30;;;;;;;13.60;100.00;99670.31;5072432;28;20213;-79
2022/04/24 03:24:48;;;;;;;4.97;4.00;;;;;;;13.76;100.00;99693.72;5071840;28;20675;-79
2022/04/24 03:27:15;;;;;;;7.35;3.75;;;;;;;13.77;100.00;99697.19;5071866;28;20218;-79
2022/04/24 03:29:42;;;;;;;4.40;3.72;;;;;;;13.80;100.00;99689.38;5071871;28;20213;-79
2022/04/24 03:32:09;;;;;;;3.65;3.38;;;;;;;13.67;100.00;99666.81;5071820;28;20558;-78
2022/04/24 03:34:37;;;;;;;6.22;4.38;;;;;;;13.87;100.00;99702.38;5033154;28;20254;-79
2022/04/24 03:37:04;;;;;;;6.70;4.28;;;;;;;13.78;100.00;99691.97;5065503;28;20202;-78
2022/04/24 03:39:33;;;;;;;5.55;4.25;;;;;;;13.69;100.00;99676.38;5072495;28;20286;-79
2022/04/24 03:41:59;;;;;;;4.70;3.97;;;;;;;13.95;100.00;99715.34;5071153;28;20195;-79
2022/04/24 03:44:27;;;;;;;6.50;4.18;;;;;;;14.01;100.00;99722.28;5020174;28;20671;-79
2022/04/24 03:46:54;;;;;;;5.75;3.90;;;;;;;14.16;100.00;99715.22;5071845;28;20199;-79
2022/04/24 03:49:20;;;;;;;8.90;4.63;;;;;;;14.64;100.00;99713.22;5071632;28;20191;-79
2022/04/24 03:51:47;;;;;;;5.90;4.47;;;;;;;15.38;100.00;99723.88;5072787;28;20195;-79
2022/04/24 03:54:14;;;;;;;8.63;4.13;;;;;;;16.25;100.00;99728.13;5074897;28;20206;-79
2022/04/24 03:56:42;;;;;;;7.07;4.25;;;;;;;16.85;100.00;99728.97;5075302;28;20206;-78
2022/04/24 03:59:09;;;;;;;4.75;4.03;;;;;;;17.68;100.00;99729.28;5076108;28;20512;-80
2022/04/24 04:01:36;;;;;;;6.45;4.40;;;;;;;18.57;95.78;99737.03;5040202;28;20206;-80
2022/04/24 04:04:04;;;;;;;8.07;4.28;;;;;;;19.03;88.60;99742.91;5020507;28;20222;-78
2022/04/24 04:06:30;;;;;;;5.03;3.88;;;;;;;19.55;83.13;99739.84;5071753;28;20195;-79
2022/04/24 04:08:57;;;;;;;7.10;4.15;;;;;;;20.02;80.21;99749.03;5073400;28;20234;-78
2022/04/24 04:11:26;;;;;;;6.65;3.80;;;;;;;20.49;76.02;99738.91;5022163;28;20222;-81
2022/04/24 04:13:54;;;;;;;8.55;4.00;;;;;;;20.89;71.11;99739.38;5081036;28;20203;-79
2022/04/24 04:16:22;;;;;;;7.18;3.78;;;;;;;20.90;68.24;99724.44;5077585;28;20730;-79
2022/04/24 04:18:49;;;;;;;8.27;4.00;;;;;;;20.91;67.85;99752.50;5080435;28;20191;-79
2022/04/24 04:21:16;;;;;;;4.63;3.63;;;;;;;21.53;68.19;99753.94;5079176;28;20255;-81
2022/04/24 04:23:43;;;;;;;5.07;3.47;;;;;;;22.10;65.88;99753.66;5080808;28;20199;-78
2022/04/24 04:26:09;;;;;;;8.38;4.10;;;;;;;22.41;64.72;99758.63;5081195;28;20676;-79
2022/04/24 04:28:36;;;;;;;8.90;4.70;;;;;;;22.73;62.10;99760.06;5078466;28;20214;-79
2022/04/24 04:31:04;;;;;;;7.80;4.32;;;;;;;23.55;59.32;99764.59;5082466;28;20205;-78
2022/04/24 04:33:31;;;;;;;7.20;4.28;;;;;;;23.63;57.36;99751.91;5072129;28;20199;-78
2022/04/24 04:35:58;;;;;;;11.23;4.88;;;;;;;23.93;56.78;99773.53;5079109;28;20235;-78
2022/04/24 04:38:25;;;;;;;10.02;4.10;;;;;;;24.40;55.01;99774.06;5073804;28;20209;-73
2022/04/24 04:40:51;;;;;;;3.97;3.30;;;;;;;24.64;57.69;99770.25;5074081;28;20202;-79
2022/04/24 04:43:18;;;;;;;9.25;3.97;;;;;;;24.98;56.24;99762.41;5069972;28;20203;-80
2022/04/24 04:45:45;;;;;;;10.65;3.88;;;;;;;25.21;53.08;99779.00;5072847;28;20638;-78
2022/04/24 04:48:13;;;;;;;12.50;4.78;;;;;;;25.14;51.63;99728.91;5078113;28;20215;-77
2022/04/24 04:50:40;;;;;;;6.50;3.15;;;;;;;25.45;47.79;99780.44;5078573;28;20198;-77
2022/04/24 04:53:07;;;;;;;4.00;3.13;;;;;;;25.75;46.66;99770.94;5077808;28;20902;-78
2022/04/24 04:55:34;;;;;;;5.28;3.50;;;;;;;25.95;45.60;99781.38;5076453;28;20210;-79
2022/04/24 04:58:01;;;;;;;3.95;2.70;;;;;;;26.39;46.24;99770.19;5074561;28;20199;-78
2022/04/24 05:00:27;;;;;;;3.33;2.67;;;;;;;26.30;44.32;99779.50;5071577;28;20203;-79
2022/04/24 05:02:54;;;;;;;4.88;3.33;;;;;;;26.49;44.77;99784.69;5071856;28;20565;-78
2022/04/24 05:05:22;;;;;;;5.00;3.45;;;;;;;25.64;46.31;99733.44;5070894;28;20187;-77
2022/04/24 05:07:49;;;;;;;5.75;4.00;;;;;;;25.74;46.91;99786.94;5070277;28;20628;-76
2022/04/24 05:10:16;;;;;;;4.47;4.07;;;;;;;26.17;48.02;99794.38;5033634;28;20199;-77
2022/04/24 05:12:43;;;;;;;10.75;5.07;;;;;;;26.30;48.40;99791.94;5070313;28;20203;-77
2022/04/24 05:15:13;;;;;;;5.22;4.18;;;;;;;26.24;48.68;99745.28;5033318;28;20233;-78
2022/04/24 05:17:40;;;;;;;6.30;4.03;;;;;;;26.41;48.72;99786.91;5070185;28;20667;-79
2022/04/24 05:20:10;;;;;;;5.47;3.38;;;;;;;25.68;48.54;99784.59;5070742;28;20206;-78
2022/04/24 05:22:39;;;;;;;5.97;4.63;;;;;;;25.69;51.34;99778.34;5070580;28;20604;-77
2022/04/24 05:25:09;;;;;;;8.25;3.67;;;;;;;25.10;50.07;99739.72;5070939;28;20226;-78
2022/04/24 05:27:36;;;;;;;4.28;3.42;;;;;;;24.77;53.22;99766.09;5051004;28;20379;-77
2022/04/24 05:30:05;;;;;;;2.72;2.47;;;;;;;24.48;49.94;99787.81;5070309;28;20207;-78
2022/04/24 05:32:39;;;;;;;4.07;3.30;;;;;;;24.23;50.76;99756.28;5020314;28;20198;-77
2022/04/24 05:35:07;;;;;;;4.95;3.30;;;;;;;23.72;52.85;99764.75;5070772;28;20234;-78
2022/04/24 05:37:34;;;;;;;4.35;3.47;;;;;;;23.35;54.80;99777.78;5059965;28;20212;-78
2022/04/24 05:40:03;;;;;;;8.88;4.60;;;;;;;23.16;58.96;99778.56;5066551;28;20663;-77
2022/04/24 05:42:29;;;;;;;7.60;4.88;;;;;;;22.75;60.49;99760.88;5069864;28;20219;-80
2022/04/24 05:44:59;;;;;;;6.32;5.13;;;;;;;22.26;64.67;99772.41;5070368;28;20210;-79
2022/04/24 05:47:26;;;;;;;7.00;4.95;;;;;;;21.83;67.46;99777.53;5068543;28;20194;-77
2022/04/24 05:49:53;;;;;;;11.25;4.88;;;;;;;21.49;68.76;99777.84;5069999;28;20236;-77
2022/04/24 05:52:19;;;;;;;6.28;4.32;;;;;;;21.20;67.20;99763.84;5035898;28;20195;-80
2022/04/24 05:54:46;;;;;;;7.82;5.20;;;;;;;21.02;70.39;99779.38;5034613;28;20198;-78
2022/04/24 05:57:14;;;;;;;7.75;5.50;;;;;;;20.85;76.05;99774.66;5069710;28;20752;-76
2022/04/24 05:59:41;;;;;;;12.35;5.18;;;;;;;20.59;80.91;99785.13;5055983;28;20215;-78
2022/04/24 06:02:08;;;;;;;8.40;5.93;;;;;;;20.33;83.61;99767.50;5049644;28;20215;-77
2022/04/24 06:04:35;;;;;;;8.02;5.43;;;;;;;19.52;86.56;99704.88;5063623;28;20228;-77
2022/04/24 06:07:01;;;;;;;5.57;4.97;;;;;;;19.88;87.40;99790.69;5061560;28;20218;-77
2022/04/24 06:09:28;;;;;;;6.45;3.80;;;;;;;19.82;84.03;99769.81;5069512;28;20226;-77
2022/04/24 06:12:00;;;;;;;9.32;4.78;;;;;;;19.95;88.02;99783.47;5069570;28;20898;-76
2022/04/24 06:14:29;;;;;;;6.85;4.57;;;;;;;19.63;93.04;99786.97;5069743;28;20233;-75
2022/04/24 06:16:55;;;;;;;5.88;4.53;;;;;;;19.63;93.52;99786.97;5070430;28;20285;-75
2022/04/24 06:19:22;;;;;;;4.85;4.18;;;;;;;19.59;95.44;99787.97;5068017;28;20207;-76
2022/04/24 06:21:49;;;;;;;3.40;3.10;;;;;;;19.59;87.76;99785.31;5069669;28;20213;-78
2022/04/24 06:24:16;;;;;;;3.63;3.15;;;;;;;19.69;87.80;99784.22;5069337;28;20210;-78
2022/04/24 06:26:44;;;;;;;3.97;3.38;;;;;;;19.72;93.16;99784.13;5052561;28;20238;-80
2022/04/24 06:29:11;;;;;;;9.27;3.10;;;;;;;19.79;88.13;99788.31;5074267;28;20325;-77
2022/04/24 06:31:39;;;;;;;6.10;2.95;;;;;;;19.72;88.30;99765.72;5063285;28;20202;-72
2022/04/24 06:34:06;;;;;;;3.85;3.08;;;;;;;19.99;87.44;99793.88;5072283;28;20286;-78
2022/04/24 06:36:33;;;;;;;2.88;2.47;;;;;;;20.10;83.78;99789.19;5067503;28;20199;-79
2022/04/24 06:39:00;;;;;;;3.47;3.17;;;;;;;19.79;88.23;99746.22;5059201;28;20218;-80
2022/04/24 06:41:27;;;;;;;3.08;2.33;;;;;;;20.01;88.32;99773.63;5072029;28;20678;-77
2022/04/24 06:43:53;;;;;;;5.88;2.85;;;;;;;19.90;89.92;99778.34;5071260;28;20313;-78
2022/04/24 06:46:20;;;;;;;3.63;2.80;;;;;;;19.82;93.89;99793.50;5071612;28;20221;-79
2022/04/24 06:48:48;;;;;;;2.40;2.20;;;;;;;19.56;87.90;99791.53;5053694;28;20210;-78
2022/04/24 06:51:15;;;;;;;2.67;2.35;;;;;;;19.56;90.85;99782.78;5065087;28;20207;-78
2022/04/24 06:53:42;;;;;;;2.78;2.58;;;;;;;19.20;97.75;99724.97;5072621;28;20187;-75
2022/04/24 06:56:09;;;;;;;3.20;2.88;;;;;;;19.69;100.00;99792.09;5072666;28;20203;-79
2022/04/24 06:58:36;;;;;;;3.55;2.95;;;;;;;19.71;96.93;99790.28;5030305;28;20206;-76
2022/04/24 07:01:03;;;;;;;4.55;3.15;;;;;;;19.47;100.00;99733.94;5070825;28;20195;-75
2022/04/24 07:03:31;;;;;;;4.60;2.38;;;;;;;19.55;100.00;99731.13;5071960;28;20662;-75
2022/04/24 07:06:00;;;;;;;3.88;2.58;;;;;;;19.93;99.16;99773.00;5070856;28;20207;-77
2022/04/24 07:08:29;;;;;;;5.78;2.90;;;;;;;19.88;99.28;99767.00;5072145;28;20690;-74
2022/04/24 07:10:56;;;;;;;4.80;2.60;;;;;;;19.73;100.00;99763.00;5071733;28;20205;-79
2022/04/24 07:13:23;;;;;;;3.85;3.38;;;;;;;20.08;100.00;99784.88;5072898;28;20230;-75
2022/04/24 07:15:50;;;;;;;3.15;2.50;;;;;;;19.95;100.00;99751.88;5073240;28;20191;-77
2022/04/24 07:18:17;;;;;;;5.60;3.45;;;;;;;20.07;100.00;99778.75;5072335;28;20198;-78
2022/04/24 07:20:43;;;;;;;3.83;2.65;;;;;;;20.03;99.71;99776.22;5019934;28;20659;-76
2022/04/24 07:23:12;;;;;;;5.63;2.60;;;;;;;20.14;98.49;99785.56;5071201;28;20203;-80
2022/04/24 07:25:41;;;;;;;2.75;2.55;;;;;;;20.00;96.84;99752.63;5065995;28;20626;-78
2022/04/24 07:28:07;;;;;;;2.10;1.85;;;;;;;20.31;95.65;99776.31;5079446;28;20226;-75
2022/04/24 07:30:34;;;;;;;2.50;2.30;;;;;;;20.28;94.50;99772.88;5085363;28;20207;-74
2022/04/24 07:33:02;;;;;;;2.08;1.98;;;;;;;20.18;91.42;99781.06;5070501;28;20207;-80
2022/04/24 07:35:31;;;;;;;3.25;2.13;;;;;;;20.36;92.87;99779.69;5070809;28;20246;-80
2022/04/24 07:37:58;;;;;;;2.80;1.90;;;;;;;20.31;90.34;99784.22;5069212;28;20199;-77
2022/04/24 07:40:28;;;;;;;2.42;2.17;;;;;;;20.44;94.01;99768.00;5063648;28;20227;-78
2022/04/24 07:42:56;;;;;;;2.55;2.35;;;;;;;20.55;87.21;99781.72;5060371;28;20219;-79
2022/04/24 07:45:24;;;;;;;3.10;2.00;;;;;;;20.47;86.61;99777.63;5072220;28;20210;-77
2022/04/24 07:47:53;;;;;;;1.70;1.60;;;;;;;20.15;79.82;99789.94;5069744;28;20655;-79
2022/04/24 07:50:23;;;;;;;3.97;1.63;;;;;;;20.18;80.86;99771.41;5065146;28;20702;-81
2022/04/24 07:52:50;;;;;;;1.52;1.42;;;;;;;20.18;69.06;99775.81;5072575;28;20206;-82
2022/04/24 07:55:22;;;;;;;1.58;1.48;;;;;;;20.46;71.62;99779.38;5072517;28;20210;-81
2022/04/24 07:57:51;;;;;;;5.40;2.10;;;;;;;20.52;72.75;99771.28;5046139;28;20698;-79
2022/04/24 08:00:20;;;;;;;1.90;1.80;;;;;;;20.60;71.02;99757.88;5070498;28;20283;-78
2022/04/24 08:02:49;;;;;;;3.00;1.75;;;;;;;20.60;76.24;99763.16;5071069;28;20252;-76
2022/04/24 08:05:23;;;;;;;2.03;1.65;;;;;;;20.77;77.28;99761.72;5071440;28;20603;-78
2022/04/24 08:07:50;;;;;;;1.88;1.77;;;;;;;20.94;74.49;99768.25;5071823;28;20221;-76
2022/04/24 08:10:18;;;;;;;4.03;1.90;;;;;;;21.23;73.06;99763.75;5071197;28;20581;-77
2022/04/24 08:12:45;;;;;;;2.72;2.10;;;;;;;21.67;78.84;99769.28;5035661;28;20271;-79
2022/04/24 08:15:13;;;;;;;1.77;1.67;;;;;;;21.45;71.71;99760.38;5070667;28;20203;-78
2022/04/24 08:17:40;;;;;;;2.22;1.77;;;;;;;21.44;72.08;99761.31;5070468;28;20589;-78
2022/04/24 08:20:09;;;;;;;4.20;1.95;;;;;;;21.34;71.55;99734.38;5070433;28;20634;-79
2022/04/24 08:22:40;;;;;;;1.70;1.60;;;;;;;21.21;70.49;99714.63;5070410;28;20194;-79
2022/04/24 08:25:08;;;;;;;4.70;2.10;;;;;;;21.37;69.95;99736.06;5070202;28;20203;-78
2022/04/24 08:27:36;;;;;;;2.15;1.92;;;;;;;21.66;68.71;99739.38;5070145;28;20206;-78
2022/04/24 08:30:03;;;;;;;2.45;1.25;;;;;;;21.65;65.76;99748.22;5070217;28;20234;-79
2022/04/24 08:32:32;;;;;;;3.03;1.65;;;;;;;21.62;66.14;99743.03;5070330;28;20198;-78
2022/04/24 08:34:59;;;;;;;4.18;1.75;;;;;;;21.71;67.84;99741.88;5069941;28;20241;-80
2022/04/24 08:37:26;;;;;;;2.88;1.67;;;;;;;21.50;68.28;99692.50;5070286;28;20195;-78
2022/04/24 08:39:54;;;;;;;1.70;1.60;;;;;;;21.52;69.02;99720.53;5069909;28;20191;-79
2022/04/24 08:42:21;;;;;;;2.33;1.70;;;;;;;21.83;68.21;99730.03;5070088;28;20210;-79
2022/04/24 08:44:49;;;;;;;1.80;1.70;;;;;;;21.40;66.74;99676.16;5070216;28;20194;-78
2022/04/24 08:47:17;;;;;;;3.20;1.98;;;;;;;21.77;66.71;99704.69;5070266;28;20276;-79
2022/04/24 08:49:45;;;;;;;1.67;1.60;;;;;;;21.85;63.47;99718.47;5069425;28;20606;-77
2022/04/24 08:52:14;;;;;;;3.63;1.90;;;;;;;21.65;64.21;99690.16;5069629;28;20207;-79
2022/04/24 08:54:41;;;;;;;1.80;1.70;;;;;;;21.90;64.31;99705.13;5069971;28;20205;-78
2022/04/24 08:57:08;;;;;;;3.03;1.75;;;;;;;21.61;65.17;99712.31;5069944;28;20198;-79
2022/04/24 08:59:36;;;;;;;3.28;2.35;;;;;;;21.85;66.15;99715.84;5071530;28;20687;-83
2022/04/24 09:02:04;;;;;;;2.25;1.80;;;;;;;21.95;64.77;99708.47;5036912;28;20225;-82
2022/04/24 09:04:32;;;;;;;2.15;1.70;;;;;;;22.15;64.97;99701.50;5071388;28;20209;-82
2022/04/24 09:07:02;;;;;;;3.20;1.67;;;;;;;22.14;63.27;99715.66;5070059;28;20702;-82
2022/04/24 09:09:29;;;;;;;1.60;1.50;;;;;;;22.18;63.65;99690.84;5070870;28;20218;-85
2022/04/24 09:12:07;;;;;;;1.83;1.73;;;;;;;22.59;62.92;99706.84;5071267;28;20247;-87
2022/04/24 09:14:34;;;;;;;3.03;1.50;;;;;;;22.28;64.01;99682.56;5070421;28;20210;-81
2022/04/24 09:17:05;;;;;;;2.17;2.00;;;;;;;22.57;61.51;99683.13;5072395;28;20252;-83
2022/04/24 09:19:32;;;;;;;2.90;1.75;;;;;;;22.28;63.04;99695.75;5071563;28;20210;-82
2022/04/24 09:22:05;;;;;;;2.22;1.60;;;;;;;22.50;63.52;99701.94;5070949;28;20202;-73
2022/04/24 09:24:46;;;;;;;1.70;1.60;;;;;;;22.68;63.82;99696.81;5070901;28;20643;-81
2022/04/24 09:27:23;;;;;;;1.70;1.60;;;;;;;22.80;65.61;99686.63;5070756;28;20237;-80
2022/04/24 09:29:54;;;;;;;2.47;1.77;;;;;;;22.83;64.80;99674.16;5071869;28;20681;-79
2022/04/24 09:32:21;;;;;;;1.33;1.23;;;;;;;22.53;61.88;99664.81;5070732;28;20248;-79
2022/04/24 09:34:48;;;;;;;2.03;1.60;;;;;;;22.85;63.47;99667.03;5070007;28;20234;-82
2022/04/24 09:37:16;;;;;;;1.83;1.73;;;;;;;23.13;63.34;99669.38;5052577;28;20626;-80
2022/04/24 09:39:43;;;;;;;2.72;1.50;;;;;;;22.98;62.08;99668.22;5070735;28;20199;-77
2022/04/24 09:42:11;;;;;;;4.38;1.77;;;;;;;22.87;62.77;99659.88;5070499;28;20199;-79
2022/04/24 09:44:40;;;;;;;2.45;1.50;;;;;;;22.83;61.60;99660.94;5070894;28;20634;-80
2022/04/24 09:47:08;;;;;;;1.30;1.30;;;;;;;22.54;61.24;99626.91;5069610;28;20205;-77
2022/04/24 09:49:38;;;;;;;1.33;1.33;;;;;;;22.88;60.99;99645.75;5069718;28;20287;-77
2022/04/24 09:52:09;;;;;;;1.73;1.63;;;;;;;23.03;61.27;99650.41;5069765;28;20226;-78
2022/04/24 09:54:39;;;;;;;2.22;1.80;;;;;;;22.92;60.50;99646.47;5069257;28;20206;-78
2022/04/24 09:57:08;;;;;;;1.95;1.85;;;;;;;23.02;61.15;99643.38;5069488;28;20227;-76
2022/04/24 09:59:37;;;;;;;2.47;2.08;;;;;;;23.02;59.95;99630.16;5069275;28;20686;-79
2022/04/24 10:02:05;;;;;;;2.35;1.88;;;;;;;23.22;59.04;99627.50;5070822;28;20194;-82
2022/04/24 10:04:35;;;;;;;2.53;1.80;;;;;;;22.99;57.71;99577.41;5073290;28;20202;-81
2022/04/24 10:07:04;;;;;;;4.45;2.20;;;;;;;23.60;58.34;99640.84;5072950;28;20217;-81
2022/04/24 10:09:33;;;;;;;2.47;1.75;;;;;;;23.53;57.38;99634.13;5073118;28;20729;-80
2022/04/24 10:12:05;;;;;;;2.08;1.88;;;;;;;23.54;56.68;99623.44;5073064;28;20206;-81
2022/04/24 10:14:34;;;;;;;2.33;1.40;;;;;;;23.65;57.61;99620.34;5074044;28;20207;-84
2022/04/24 10:17:32;;;;;;;2.47;1.75;;;;;;;23.89;57.51;99621.84;5072959;28;20199;-83
2022/04/24 10:20:43;;;;;;;10.18;2.20;;;;;;;24.21;56.28;99630.97;5073369;28;20207;-84
2022/04/24 10:23:10;;;;;;;1.83;1.73;;;;;;;24.24;56.47;99633.47;5072950;28;20241;-87
2022/04/24 10:25:39;;;;;;;2.70;1.42;;;;;;;24.34;56.49;99631.22;5074252;28;20195;-85
2022/04/24 10:28:16;;;;;;;2.78;1.80;;;;;;;24.21;53.60;99635.41;5074138;28;20195;-83
2022/04/24 10:30:44;;;;;;;4.18;2.10;;;;;;;24.04;52.42;99612.34;5072702;28;20222;-85
2022/04/24 10:33:22;;;;;;;3.15;1.88;;;;;;;24.38;51.78;99619.53;5073023;28;20286;-85
2022/04/24 10:35:50;;;;;;;4.13;1.70;;;;;;;24.39;52.76;99623.91;5071641;28;20344;-84
2022/04/24 10:38:18;;;;;;;2.58;2.13;;;;;;;24.32;54.72;99601.28;5072380;28;20264;-77
2022/04/24 11:26:26;;;;;;;4.43;2.50;;;;;;;24.25;53.34;99581.34;5161549;27;20514;-75
2022/04/24 11:28:53;;;;;;;2.28;2.03;;;;;;;24.41;53.39;99588.44;5127456;27;20203;-77
2022/04/24 11:31:22;;;;;;;2.30;2.08;;;;;;;24.54;52.42;99583.41;5148793;27;20196;-77
2022/04/24 11:33:57;;;;;;;3.08;2.17;;;;;;;24.69;52.20;99588.78;5149166;27;20196;-80
2022/04/24 11:36:25;;;;;;;2.65;1.90;;;;;;;24.96;51.36;99593.66;5149318;27;20204;-81
2022/04/24 11:38:53;;;;;;;1.67;1.58;;;;;;;24.78;50.92;99550.34;5149529;27;20652;-79
2022/04/24 11:41:21;;;;;;;6.93;2.13;;;;;;;25.05;49.89;99571.94;5149332;27;20199;-80
2022/04/24 11:43:49;;;;;;;3.67;1.50;;;;;;;25.01;49.77;99588.94;5149631;27;20294;-77
2022/04/24 11:51:50;;;;;;;4.15;1.70;;;;;;;25.35;48.57;99580.09;5148893;27;20305;-73
2022/04/24 11:54:18;;;;;;;1.50;1.40;;;;;;;25.12;49.42;99558.28;5148845;27;20192;-77
2022/04/24 11:56:50;;;;;;;1.83;1.70;;;;;;;25.08;49.06;99548.75;5134796;27;20243;-76
2022/04/24 11:59:20;;;;;;;4.07;1.75;;;;;;;25.37;48.81;99538.38;5131697;27;20236;-77
2022/04/24 12:01:56;;;;;;;1.80;1.70;;;;;;;25.64;48.25;99568.78;5143930;27;20611;-84
2022/04/24 12:04:26;;;;;;;2.97;1.50;;;;;;;25.28;47.56;99576.06;5141917;27;20227;-79
2022/04/24 12:07:01;;;;;;;2.88;1.60;;;;;;;25.43;47.54;99538.06;5148086;27;20702;-79
2022/04/24 12:09:28;;;;;;;4.78;1.60;;;;;;;25.69;47.88;99556.09;5162637;27;20199;-74
2022/04/24 12:12:05;;;;;;;3.85;1.90;;;;;;;25.99;46.02;99558.88;5147673;27;20196;-73
2022/04/24 12:14:34;;;;;;;2.30;1.80;;;;;;;26.05;45.73;99558.50;5132313;27;20646;-76
2022/04/24 12:17:04;;;;;;;2.33;1.90;;;;;;;26.10;45.63;99549.34;5138900;27;20216;-75
2022/04/24 12:19:30;;;;;;;2.53;1.52;;;;;;;26.10;45.44;99529.88;5145674;27;20193;-78
2022/04/24 12:22:05;;;;;;;1.95;1.35;;;;;;;26.42;43.85;99549.31;5126571;28;20197;-78
2022/04/24 12:24:42;;;;;;;3.85;1.92;;;;;;;26.40;45.22;99529.91;5115422;28;20224;-76